sensor_id;sensor_type;location;lat;lon;timestamp;P1;durP1;ratioP1;P2;durP2;ratioP2
13785;SDS011;47474;48.824;9.384;2024-02-16T00:01:12;2.83;;;2.37;;
13785;SDS011;47474;48.824;9.384;2024-02-16T00:03:38;4.47;;;2.73;;
13785;SDS011;47474;48.824;9.384;2024-02-16T00:06:06;3.37;;;2.57;;
13785;SDS011;47474;48.824;9.384;2024-02-16T00:08:33;3.97;;;3.10;;
13785;SDS011;47474;48.824;9.384;2024-02-16T00:11:03;7.67;;;2.83;;
13785;SDS011;47474;48.824;9.384;2024-02-16T00:13:30;3.80;;;3.30;;
13785;SDS011;47474;48.824;9.384;2024-02-16T00:15:58;4.47;;;2.77;;
13785;SDS011;47474;48.824;9.384;2024-02-16T00:18:27;3.63;;;2.80;;
13785;SDS011;47474;48.824;9.384;2024-02-16T00:20:53;4.77;;;2.60;;
13785;SDS011;47474;48.824;9.384;2024-02-16T00:23:20;3.90;;;2.70;;
13785;SDS011;47474;48.824;9.384;2024-02-16T00:25:50;3.87;;;2.50;;
13785;SDS011;47474;48.824;9.384;2024-02-16T00:28:16;3.47;;;2.63;;
13785;SDS011;47474;48.824;9.384;2024-02-16T00:30:43;3.27;;;2.60;;
13785;SDS011;47474;48.824;9.384;2024-02-16T00:33:13;3.17;;;2.20;;
13785;SDS011;47474;48.824;9.384;2024-02-16T00:35:40;3.13;;;2.47;;
13785;SDS011;47474;48.824;9.384;2024-02-16T00:38:06;4.80;;;2.47;;
13785;SDS011;47474;48.824;9.384;2024-02-16T00:40:33;2.63;;;2.20;;
13785;SDS011;47474;48.824;9.384;2024-02-16T00:42:59;2.70;;;2.23;;
13785;SDS011;47474;48.824;9.384;2024-02-16T00:45:26;2.37;;;2.00;;
13785;SDS011;47474;48.824;9.384;2024-02-16T00:47:54;2.60;;;2.20;;
13785;SDS011;47474;48.824;9.384;2024-02-16T00:50:23;3.30;;;2.00;;
13785;SDS011;47474;48.824;9.384;2024-02-16T00:52:51;3.43;;;2.33;;
13785;SDS011;47474;48.824;9.384;2024-02-16T00:55:18;2.97;;;2.10;;
13785;SDS011;47474;48.824;9.384;2024-02-16T00:57:47;2.53;;;2.00;;
13785;SDS011;47474;48.824;9.384;2024-02-16T01:00:14;3.67;;;2.13;;
13785;SDS011;47474;48.824;9.384;2024-02-16T01:02:44;2.87;;;2.57;;
13785;SDS011;47474;48.824;9.384;2024-02-16T01:05:10;2.10;;;1.90;;
13785;SDS011;47474;48.824;9.384;2024-02-16T01:07:39;2.67;;;1.97;;
13785;SDS011;47474;48.824;9.384;2024-02-16T01:10:07;2.10;;;1.90;;
13785;SDS011;47474;48.824;9.384;2024-02-16T01:12:34;4.00;;;2.40;;
13785;SDS011;47474;48.824;9.384;2024-02-16T01:15:00;7.13;;;3.60;;
13785;SDS011;47474;48.824;9.384;2024-02-16T01:17:28;4.33;;;3.50;;
13785;SDS011;47474;48.824;9.384;2024-02-16T01:19:57;4.80;;;3.03;;
13785;SDS011;47474;48.824;9.384;2024-02-16T01:22:24;3.20;;;2.10;;
13785;SDS011;47474;48.824;9.384;2024-02-16T01:24:52;3.63;;;2.47;;
13785;SDS011;47474;48.824;9.384;2024-02-16T01:27:18;2.53;;;2.10;;
13785;SDS011;47474;48.824;9.384;2024-02-16T01:29:46;2.90;;;1.90;;
13785;SDS011;47474;48.824;9.384;2024-02-16T01:32:12;2.27;;;1.70;;
13785;SDS011;47474;48.824;9.384;2024-02-16T01:34:40;2.40;;;1.80;;
13785;SDS011;47474;48.824;9.384;2024-02-16T01:37:09;1.93;;;1.67;;
13785;SDS011;47474;48.824;9.384;2024-02-16T01:39:35;2.33;;;1.77;;
13785;SDS011;47474;48.824;9.384;2024-02-16T01:42:04;2.33;;;1.90;;
13785;SDS011;47474;48.824;9.384;2024-02-16T01:44:31;4.03;;;2.37;;
13785;SDS011;47474;48.824;9.384;2024-02-16T01:46:57;3.47;;;2.33;;
13785;SDS011;47474;48.824;9.384;2024-02-16T01:49:24;5.10;;;3.17;;
13785;SDS011;47474;48.824;9.384;2024-02-16T01:51:50;3.90;;;2.80;;
13785;SDS011;47474;48.824;9.384;2024-02-16T01:54:17;6.10;;;2.50;;
13785;SDS011;47474;48.824;9.384;2024-02-16T01:56:43;2.20;;;2.00;;
13785;SDS011;47474;48.824;9.384;2024-02-16T01:59:12;3.97;;;2.27;;
13785;SDS011;47474;48.824;9.384;2024-02-16T02:01:38;3.80;;;2.30;;
13785;SDS011;47474;48.824;9.384;2024-02-16T02:04:05;3.00;;;2.20;;
13785;SDS011;47474;48.824;9.384;2024-02-16T02:06:32;2.93;;;2.30;;
13785;SDS011;47474;48.824;9.384;2024-02-16T02:08:58;2.97;;;1.93;;
13785;SDS011;47474;48.824;9.384;2024-02-16T02:11:25;3.30;;;2.20;;
13785;SDS011;47474;48.824;9.384;2024-02-16T02:13:51;2.50;;;1.80;;
13785;SDS011;47474;48.824;9.384;2024-02-16T02:16:19;2.67;;;2.00;;
13785;SDS011;47474;48.824;9.384;2024-02-16T02:18:47;2.63;;;2.13;;
13785;SDS011;47474;48.824;9.384;2024-02-16T02:21:16;2.80;;;1.93;;
13785;SDS011;47474;48.824;9.384;2024-02-16T02:23:44;2.47;;;2.27;;
13785;SDS011;47474;48.824;9.384;2024-02-16T02:26:13;2.10;;;1.80;;
13785;SDS011;47474;48.824;9.384;2024-02-16T02:28:41;3.67;;;2.30;;
13785;SDS011;47474;48.824;9.384;2024-02-16T02:31:11;3.67;;;2.10;;
13785;SDS011;47474;48.824;9.384;2024-02-16T02:33:37;2.80;;;2.00;;
13785;SDS011;47474;48.824;9.384;2024-02-16T02:36:06;2.70;;;2.10;;
13785;SDS011;47474;48.824;9.384;2024-02-16T02:38:33;1.83;;;1.70;;
13785;SDS011;47474;48.824;9.384;2024-02-16T02:41:02;3.20;;;1.63;;
13785;SDS011;47474;48.824;9.384;2024-02-16T02:43:28;4.83;;;2.33;;
13785;SDS011;47474;48.824;9.384;2024-02-16T02:45:55;1.90;;;1.80;;
13785;SDS011;47474;48.824;9.384;2024-02-16T02:48:22;2.17;;;1.80;;
13785;SDS011;47474;48.824;9.384;2024-02-16T02:50:48;2.40;;;1.93;;
13785;SDS011;47474;48.824;9.384;2024-02-16T02:53:14;2.70;;;2.17;;
13785;SDS011;47474;48.824;9.384;2024-02-16T02:55:43;2.80;;;2.07;;
13785;SDS011;47474;48.824;9.384;2024-02-16T02:58:11;2.40;;;2.03;;
13785;SDS011;47474;48.824;9.384;2024-02-16T03:00:37;2.90;;;2.20;;
13785;SDS011;47474;48.824;9.384;2024-02-16T03:03:04;3.30;;;2.20;;
13785;SDS011;47474;48.824;9.384;2024-02-16T03:05:30;4.07;;;3.47;;
13785;SDS011;47474;48.824;9.384;2024-02-16T03:07:57;4.33;;;2.60;;
13785;SDS011;47474;48.824;9.384;2024-02-16T03:10:26;3.27;;;2.60;;
13785;SDS011;47474;48.824;9.384;2024-02-16T03:12:59;2.60;;;2.40;;
13785;SDS011;47474;48.824;9.384;2024-02-16T03:15:27;2.83;;;2.23;;
13785;SDS011;47474;48.824;9.384;2024-02-16T03:17:54;2.87;;;2.37;;
13785;SDS011;47474;48.824;9.384;2024-02-16T03:20:20;2.77;;;2.30;;
13785;SDS011;47474;48.824;9.384;2024-02-16T03:22:47;2.53;;;2.10;;
13785;SDS011;47474;48.824;9.384;2024-02-16T03:25:14;3.37;;;2.10;;
13785;SDS011;47474;48.824;9.384;2024-02-16T03:27:41;3.77;;;2.43;;
13785;SDS011;47474;48.824;9.384;2024-02-16T03:30:09;2.67;;;1.90;;
13785;SDS011;47474;48.824;9.384;2024-02-16T03:32:37;3.20;;;2.23;;
13785;SDS011;47474;48.824;9.384;2024-02-16T03:35:04;2.13;;;1.93;;
13785;SDS011;47474;48.824;9.384;2024-02-16T03:37:31;3.60;;;2.53;;
13785;SDS011;47474;48.824;9.384;2024-02-16T03:39:58;2.57;;;2.37;;
13785;SDS011;47474;48.824;9.384;2024-02-16T03:42:24;3.20;;;2.50;;
13785;SDS011;47474;48.824;9.384;2024-02-16T03:44:51;3.10;;;2.33;;
13785;SDS011;47474;48.824;9.384;2024-02-16T03:47:17;2.73;;;2.30;;
13785;SDS011;47474;48.824;9.384;2024-02-16T03:49:45;2.30;;;2.10;;
13785;SDS011;47474;48.824;9.384;2024-02-16T03:52:12;3.00;;;2.40;;
13785;SDS011;47474;48.824;9.384;2024-02-16T03:54:39;3.37;;;2.37;;
13785;SDS011;47474;48.824;9.384;2024-02-16T03:57:07;7.00;;;2.70;;
13785;SDS011;47474;48.824;9.384;2024-02-16T03:59:36;2.43;;;1.90;;
13785;SDS011;47474;48.824;9.384;2024-02-16T04:02:03;2.43;;;1.93;;
13785;SDS011;47474;48.824;9.384;2024-02-16T04:04:29;2.20;;;1.97;;
13785;SDS011;47474;48.824;9.384;2024-02-16T04:06:57;2.80;;;2.50;;
13785;SDS011;47474;48.824;9.384;2024-02-16T04:09:24;3.27;;;2.20;;
13785;SDS011;47474;48.824;9.384;2024-02-16T04:11:50;2.00;;;1.77;;
13785;SDS011;47474;48.824;9.384;2024-02-16T04:14:16;2.93;;;1.80;;
13785;SDS011;47474;48.824;9.384;2024-02-16T04:16:43;3.10;;;1.97;;
13785;SDS011;47474;48.824;9.384;2024-02-16T04:19:10;3.63;;;2.40;;
13785;SDS011;47474;48.824;9.384;2024-02-16T04:21:36;2.40;;;1.90;;
13785;SDS011;47474;48.824;9.384;2024-02-16T04:24:04;2.57;;;2.17;;
13785;SDS011;47474;48.824;9.384;2024-02-16T04:26:31;2.43;;;1.80;;
13785;SDS011;47474;48.824;9.384;2024-02-16T04:28:58;2.50;;;2.23;;
13785;SDS011;47474;48.824;9.384;2024-02-16T04:31:24;2.83;;;2.40;;
13785;SDS011;47474;48.824;9.384;2024-02-16T04:33:51;2.50;;;2.30;;
13785;SDS011;47474;48.824;9.384;2024-02-16T04:36:18;2.87;;;2.43;;
13785;SDS011;47474;48.824;9.384;2024-02-16T04:38:44;3.53;;;2.60;;
13785;SDS011;47474;48.824;9.384;2024-02-16T04:41:15;2.67;;;2.43;;
13785;SDS011;47474;48.824;9.384;2024-02-16T04:43:42;2.70;;;2.37;;
13785;SDS011;47474;48.824;9.384;2024-02-16T04:46:13;2.93;;;2.13;;
13785;SDS011;47474;48.824;9.384;2024-02-16T04:48:40;4.13;;;2.73;;
13785;SDS011;47474;48.824;9.384;2024-02-16T04:51:06;6.03;;;3.17;;
13785;SDS011;47474;48.824;9.384;2024-02-16T04:53:33;2.97;;;2.77;;
13785;SDS011;47474;48.824;9.384;2024-02-16T04:55:59;2.77;;;2.30;;
13785;SDS011;47474;48.824;9.384;2024-02-16T04:58:28;3.50;;;2.57;;
13785;SDS011;47474;48.824;9.384;2024-02-16T05:00:55;5.23;;;3.00;;
13785;SDS011;47474;48.824;9.384;2024-02-16T05:03:21;2.93;;;2.30;;
13785;SDS011;47474;48.824;9.384;2024-02-16T05:05:47;3.33;;;2.63;;
13785;SDS011;47474;48.824;9.384;2024-02-16T05:08:14;4.07;;;2.20;;
13785;SDS011;47474;48.824;9.384;2024-02-16T05:10:41;3.80;;;2.80;;
13785;SDS011;47474;48.824;9.384;2024-02-16T05:13:07;3.17;;;2.40;;
13785;SDS011;47474;48.824;9.384;2024-02-16T05:15:35;3.47;;;2.57;;
13785;SDS011;47474;48.824;9.384;2024-02-16T05:18:01;3.57;;;2.77;;
13785;SDS011;47474;48.824;9.384;2024-02-16T05:20:28;2.83;;;2.40;;
13785;SDS011;47474;48.824;9.384;2024-02-16T05:22:54;2.50;;;2.30;;
13785;SDS011;47474;48.824;9.384;2024-02-16T05:25:21;3.33;;;2.43;;
13785;SDS011;47474;48.824;9.384;2024-02-16T05:27:49;3.43;;;2.60;;
13785;SDS011;47474;48.824;9.384;2024-02-16T05:30:15;4.10;;;2.93;;
13785;SDS011;47474;48.824;9.384;2024-02-16T05:32:43;3.27;;;2.90;;
13785;SDS011;47474;48.824;9.384;2024-02-16T05:35:10;4.50;;;3.27;;
13785;SDS011;47474;48.824;9.384;2024-02-16T05:37:38;3.33;;;2.77;;
13785;SDS011;47474;48.824;9.384;2024-02-16T05:40:07;4.00;;;3.10;;
13785;SDS011;47474;48.824;9.384;2024-02-16T05:42:44;4.77;;;2.97;;
13785;SDS011;47474;48.824;9.384;2024-02-16T05:45:11;3.70;;;3.03;;
13785;SDS011;47474;48.824;9.384;2024-02-16T05:47:38;2.40;;;2.20;;
13785;SDS011;47474;48.824;9.384;2024-02-16T05:50:06;3.77;;;2.60;;
13785;SDS011;47474;48.824;9.384;2024-02-16T05:52:32;3.33;;;2.50;;
13785;SDS011;47474;48.824;9.384;2024-02-16T05:54:59;3.90;;;2.60;;
13785;SDS011;47474;48.824;9.384;2024-02-16T05:57:26;3.90;;;2.40;;
13785;SDS011;47474;48.824;9.384;2024-02-16T05:59:52;3.00;;;2.53;;
13785;SDS011;47474;48.824;9.384;2024-02-16T06:02:18;3.40;;;2.70;;
13785;SDS011;47474;48.824;9.384;2024-02-16T06:04:45;3.07;;;2.47;;
13785;SDS011;47474;48.824;9.384;2024-02-16T06:07:13;3.20;;;2.80;;
13785;SDS011;47474;48.824;9.384;2024-02-16T06:09:40;3.43;;;2.33;;
13785;SDS011;47474;48.824;9.384;2024-02-16T06:12:06;3.93;;;2.50;;
13785;SDS011;47474;48.824;9.384;2024-02-16T06:14:34;3.00;;;2.30;;
13785;SDS011;47474;48.824;9.384;2024-02-16T06:17:01;2.70;;;2.37;;
13785;SDS011;47474;48.824;9.384;2024-02-16T06:19:33;4.80;;;2.50;;
13785;SDS011;47474;48.824;9.384;2024-02-16T06:21:59;3.43;;;2.50;;
13785;SDS011;47474;48.824;9.384;2024-02-16T06:24:27;4.63;;;2.47;;
13785;SDS011;47474;48.824;9.384;2024-02-16T06:26:53;5.03;;;2.70;;
13785;SDS011;47474;48.824;9.384;2024-02-16T06:29:20;2.53;;;1.87;;
13785;SDS011;47474;48.824;9.384;2024-02-16T06:31:47;3.73;;;2.30;;
13785;SDS011;47474;48.824;9.384;2024-02-16T06:34:13;2.60;;;2.40;;
13785;SDS011;47474;48.824;9.384;2024-02-16T06:36:43;4.37;;;2.20;;
13785;SDS011;47474;48.824;9.384;2024-02-16T06:39:10;2.83;;;2.53;;
13785;SDS011;47474;48.824;9.384;2024-02-16T06:41:43;2.60;;;2.40;;
13785;SDS011;47474;48.824;9.384;2024-02-16T06:44:10;2.90;;;2.37;;
13785;SDS011;47474;48.824;9.384;2024-02-16T06:46:37;2.00;;;1.80;;
13785;SDS011;47474;48.824;9.384;2024-02-16T06:49:07;3.73;;;2.30;;
13785;SDS011;47474;48.824;9.384;2024-02-16T06:51:36;3.70;;;2.90;;
13785;SDS011;47474;48.824;9.384;2024-02-16T06:54:03;3.97;;;2.30;;
13785;SDS011;47474;48.824;9.384;2024-02-16T06:56:30;2.40;;;2.20;;
13785;SDS011;47474;48.824;9.384;2024-02-16T06:58:58;2.53;;;2.30;;
13785;SDS011;47474;48.824;9.384;2024-02-16T07:01:25;2.50;;;2.10;;
13785;SDS011;47474;48.824;9.384;2024-02-16T07:03:54;3.30;;;2.47;;
13785;SDS011;47474;48.824;9.384;2024-02-16T07:06:21;3.00;;;2.33;;
13785;SDS011;47474;48.824;9.384;2024-02-16T07:08:51;5.07;;;2.83;;
13785;SDS011;47474;48.824;9.384;2024-02-16T07:11:17;3.70;;;2.60;;
13785;SDS011;47474;48.824;9.384;2024-02-16T07:13:46;5.10;;;2.97;;
13785;SDS011;47474;48.824;9.384;2024-02-16T07:16:14;3.10;;;2.80;;
13785;SDS011;47474;48.824;9.384;2024-02-16T07:18:40;3.87;;;2.47;;
13785;SDS011;47474;48.824;9.384;2024-02-16T07:21:07;5.37;;;2.63;;
13785;SDS011;47474;48.824;9.384;2024-02-16T07:23:34;4.40;;;2.43;;
13785;SDS011;47474;48.824;9.384;2024-02-16T07:26:00;3.33;;;2.57;;
13785;SDS011;47474;48.824;9.384;2024-02-16T07:28:27;3.57;;;3.17;;
13785;SDS011;47474;48.824;9.384;2024-02-16T07:30:54;3.50;;;2.90;;
13785;SDS011;47474;48.824;9.384;2024-02-16T07:33:22;3.20;;;2.53;;
13785;SDS011;47474;48.824;9.384;2024-02-16T07:35:49;2.90;;;2.57;;
13785;SDS011;47474;48.824;9.384;2024-02-16T07:38:16;3.13;;;2.57;;
13785;SDS011;47474;48.824;9.384;2024-02-16T07:40:42;3.00;;;2.60;;
13785;SDS011;47474;48.824;9.384;2024-02-16T07:43:10;3.30;;;2.40;;
13785;SDS011;47474;48.824;9.384;2024-02-16T07:45:37;2.63;;;2.33;;
13785;SDS011;47474;48.824;9.384;2024-02-16T07:48:04;2.93;;;2.30;;
13785;SDS011;47474;48.824;9.384;2024-02-16T07:50:34;3.07;;;2.40;;
13785;SDS011;47474;48.824;9.384;2024-02-16T07:53:00;2.57;;;2.30;;
13785;SDS011;47474;48.824;9.384;2024-02-16T07:55:27;3.13;;;2.10;;
13785;SDS011;47474;48.824;9.384;2024-02-16T07:57:53;4.07;;;2.17;;
13785;SDS011;47474;48.824;9.384;2024-02-16T08:00:20;3.80;;;2.67;;
13785;SDS011;47474;48.824;9.384;2024-02-16T08:02:46;2.53;;;2.33;;
13785;SDS011;47474;48.824;9.384;2024-02-16T08:05:13;2.60;;;2.40;;
13785;SDS011;47474;48.824;9.384;2024-02-16T08:07:45;2.87;;;2.43;;
13785;SDS011;47474;48.824;9.384;2024-02-16T08:10:12;4.17;;;2.43;;
13785;SDS011;47474;48.824;9.384;2024-02-16T08:12:39;4.60;;;2.30;;
13785;SDS011;47474;48.824;9.384;2024-02-16T08:15:09;3.87;;;2.53;;
13785;SDS011;47474;48.824;9.384;2024-02-16T08:17:39;5.73;;;2.33;;
13785;SDS011;47474;48.824;9.384;2024-02-16T08:20:06;3.10;;;2.50;;
13785;SDS011;47474;48.824;9.384;2024-02-16T08:22:34;3.13;;;2.50;;
13785;SDS011;47474;48.824;9.384;2024-02-16T08:25:02;2.80;;;2.40;;
13785;SDS011;47474;48.824;9.384;2024-02-16T08:27:29;2.90;;;2.40;;
13785;SDS011;47474;48.824;9.384;2024-02-16T08:29:57;4.13;;;2.70;;
13785;SDS011;47474;48.824;9.384;2024-02-16T08:32:24;3.67;;;2.83;;
13785;SDS011;47474;48.824;9.384;2024-02-16T08:34:50;4.23;;;2.93;;
13785;SDS011;47474;48.824;9.384;2024-02-16T08:37:17;5.33;;;3.20;;
13785;SDS011;47474;48.824;9.384;2024-02-16T08:39:43;4.57;;;3.20;;
13785;SDS011;47474;48.824;9.384;2024-02-16T08:42:11;4.23;;;3.10;;
13785;SDS011;47474;48.824;9.384;2024-02-16T08:44:38;4.30;;;3.37;;
13785;SDS011;47474;48.824;9.384;2024-02-16T08:47:05;3.40;;;2.87;;
13785;SDS011;47474;48.824;9.384;2024-02-16T08:49:32;3.87;;;2.70;;
13785;SDS011;47474;48.824;9.384;2024-02-16T08:51:59;5.33;;;3.10;;
13785;SDS011;47474;48.824;9.384;2024-02-16T08:54:25;3.70;;;2.90;;
13785;SDS011;47474;48.824;9.384;2024-02-16T08:56:52;4.60;;;3.30;;
13785;SDS011;47474;48.824;9.384;2024-02-16T08:59:21;4.20;;;3.20;;
13785;SDS011;47474;48.824;9.384;2024-02-16T09:01:47;4.43;;;3.07;;
13785;SDS011;47474;48.824;9.384;2024-02-16T09:04:13;4.43;;;2.97;;
13785;SDS011;47474;48.824;9.384;2024-02-16T09:06:41;6.17;;;3.47;;
13785;SDS011;47474;48.824;9.384;2024-02-16T09:09:07;3.73;;;3.00;;
13785;SDS011;47474;48.824;9.384;2024-02-16T09:11:34;3.77;;;2.73;;
13785;SDS011;47474;48.824;9.384;2024-02-16T09:14:00;3.77;;;3.03;;
13785;SDS011;47474;48.824;9.384;2024-02-16T09:16:28;5.27;;;2.87;;
13785;SDS011;47474;48.824;9.384;2024-02-16T09:18:55;4.87;;;3.07;;
13785;SDS011;47474;48.824;9.384;2024-02-16T09:21:24;4.13;;;3.10;;
13785;SDS011;47474;48.824;9.384;2024-02-16T09:23:52;5.97;;;3.60;;
13785;SDS011;47474;48.824;9.384;2024-02-16T09:26:18;6.60;;;3.63;;
13785;SDS011;47474;48.824;9.384;2024-02-16T09:28:45;3.55;;;3.03;;
13785;SDS011;47474;48.824;9.384;2024-02-16T09:31:13;3.13;;;2.75;;
13785;SDS011;47474;48.824;9.384;2024-02-16T09:33:41;3.05;;;2.50;;
13785;SDS011;47474;48.824;9.384;2024-02-16T09:36:08;3.30;;;3.00;;
13785;SDS011;47474;48.824;9.384;2024-02-16T09:38:34;4.40;;;2.83;;
13785;SDS011;47474;48.824;9.384;2024-02-16T09:41:01;3.85;;;2.45;;
13785;SDS011;47474;48.824;9.384;2024-02-16T09:43:29;5.32;;;3.72;;
13785;SDS011;47474;48.824;9.384;2024-02-16T09:45:56;4.63;;;2.90;;
13785;SDS011;47474;48.824;9.384;2024-02-16T09:48:25;3.03;;;2.28;;
13785;SDS011;47474;48.824;9.384;2024-02-16T09:50:54;4.18;;;2.60;;
13785;SDS011;47474;48.824;9.384;2024-02-16T09:53:22;2.75;;;2.17;;
13785;SDS011;47474;48.824;9.384;2024-02-16T09:55:50;3.13;;;2.53;;
13785;SDS011;47474;48.824;9.384;2024-02-16T09:58:17;3.22;;;2.42;;
13785;SDS011;47474;48.824;9.384;2024-02-16T10:00:50;4.18;;;2.50;;
13785;SDS011;47474;48.824;9.384;2024-02-16T10:03:21;3.00;;;2.17;;
13785;SDS011;47474;48.824;9.384;2024-02-16T10:05:49;2.92;;;2.17;;
13785;SDS011;47474;48.824;9.384;2024-02-16T10:08:17;2.95;;;2.28;;
13785;SDS011;47474;48.824;9.384;2024-02-16T10:10:44;2.83;;;2.03;;
13785;SDS011;47474;48.824;9.384;2024-02-16T10:13:10;5.15;;;2.30;;
13785;SDS011;47474;48.824;9.384;2024-02-16T10:15:37;2.53;;;2.15;;
13785;SDS011;47474;48.824;9.384;2024-02-16T10:18:04;3.17;;;2.33;;
13785;SDS011;47474;48.824;9.384;2024-02-16T10:20:32;4.57;;;2.65;;
13785;SDS011;47474;48.824;9.384;2024-02-16T10:23:06;3.25;;;2.42;;
13785;SDS011;47474;48.824;9.384;2024-02-16T10:25:35;3.47;;;2.40;;
13785;SDS011;47474;48.824;9.384;2024-02-16T10:28:03;5.18;;;2.28;;
13785;SDS011;47474;48.824;9.384;2024-02-16T10:30:30;8.35;;;4.28;;
13785;SDS011;47474;48.824;9.384;2024-02-16T10:33:01;4.70;;;3.58;;
13785;SDS011;47474;48.824;9.384;2024-02-16T10:35:27;4.22;;;2.28;;
13785;SDS011;47474;48.824;9.384;2024-02-16T10:37:54;3.05;;;2.03;;
13785;SDS011;47474;48.824;9.384;2024-02-16T10:40:24;2.97;;;2.47;;
13785;SDS011;47474;48.824;9.384;2024-02-16T10:42:52;3.13;;;2.30;;
13785;SDS011;47474;48.824;9.384;2024-02-16T10:45:18;3.53;;;2.30;;
13785;SDS011;47474;48.824;9.384;2024-02-16T10:47:46;4.38;;;2.83;;
13785;SDS011;47474;48.824;9.384;2024-02-16T10:50:12;4.38;;;2.50;;
13785;SDS011;47474;48.824;9.384;2024-02-16T10:52:39;5.10;;;2.70;;
13785;SDS011;47474;48.824;9.384;2024-02-16T10:55:07;3.65;;;2.45;;
13785;SDS011;47474;48.824;9.384;2024-02-16T10:57:35;3.42;;;2.90;;
13785;SDS011;47474;48.824;9.384;2024-02-16T11:00:07;3.50;;;2.00;;
13785;SDS011;47474;48.824;9.384;2024-02-16T11:05:31;2.35;;;1.98;;
13785;SDS011;47474;48.824;9.384;2024-02-16T11:07:59;1.83;;;1.55;;
13785;SDS011;47474;48.824;9.384;2024-02-16T11:10:26;3.50;;;2.00;;
13785;SDS011;47474;48.824;9.384;2024-02-16T11:12:53;3.40;;;1.95;;
13785;SDS011;47474;48.824;9.384;2024-02-16T11:15:28;2.30;;;1.77;;
13785;SDS011;47474;48.824;9.384;2024-02-16T11:17:55;3.30;;;2.20;;
13785;SDS011;47474;48.824;9.384;2024-02-16T11:20:24;2.85;;;2.33;;
13785;SDS011;47474;48.824;9.384;2024-02-16T11:22:51;2.70;;;1.77;;
13785;SDS011;47474;48.824;9.384;2024-02-16T11:25:18;4.40;;;1.88;;
13785;SDS011;47474;48.824;9.384;2024-02-16T11:27:45;4.25;;;2.65;;
13785;SDS011;47474;48.824;9.384;2024-02-16T11:30:12;2.78;;;2.33;;
13785;SDS011;47474;48.824;9.384;2024-02-16T11:32:43;2.95;;;1.92;;
13785;SDS011;47474;48.824;9.384;2024-02-16T11:35:09;9.70;;;2.50;;
13785;SDS011;47474;48.824;9.384;2024-02-16T11:37:36;3.15;;;2.10;;
13785;SDS011;47474;48.824;9.384;2024-02-16T11:40:03;2.55;;;2.15;;
13785;SDS011;47474;48.824;9.384;2024-02-16T11:42:33;2.40;;;2.20;;
13785;SDS011;47474;48.824;9.384;2024-02-16T11:45:00;5.18;;;2.80;;
13785;SDS011;47474;48.824;9.384;2024-02-16T11:47:27;3.65;;;2.40;;
13785;SDS011;47474;48.824;9.384;2024-02-16T11:50:02;3.20;;;2.55;;
13785;SDS011;47474;48.824;9.384;2024-02-16T11:52:29;4.35;;;2.58;;
13785;SDS011;47474;48.824;9.384;2024-02-16T11:54:55;3.88;;;2.10;;
13785;SDS011;47474;48.824;9.384;2024-02-16T11:57:25;2.58;;;1.80;;
13785;SDS011;47474;48.824;9.384;2024-02-16T11:59:52;3.78;;;2.20;;
13785;SDS011;47474;48.824;9.384;2024-02-16T12:02:19;2.17;;;1.80;;
13785;SDS011;47474;48.824;9.384;2024-02-16T12:04:47;2.60;;;1.85;;
13785;SDS011;47474;48.824;9.384;2024-02-16T12:07:16;2.88;;;1.88;;
13785;SDS011;47474;48.824;9.384;2024-02-16T12:09:43;3.28;;;1.88;;
13785;SDS011;47474;48.824;9.384;2024-02-16T12:12:09;2.78;;;1.90;;
13785;SDS011;47474;48.824;9.384;2024-02-16T12:14:36;2.13;;;1.88;;
13785;SDS011;47474;48.824;9.384;2024-02-16T12:17:03;4.82;;;2.22;;
13785;SDS011;47474;48.824;9.384;2024-02-16T12:19:29;2.55;;;2.13;;
13785;SDS011;47474;48.824;9.384;2024-02-16T12:21:57;2.28;;;2.00;;
13785;SDS011;47474;48.824;9.384;2024-02-16T12:24:25;2.47;;;2.05;;
13785;SDS011;47474;48.824;9.384;2024-02-16T12:26:51;3.05;;;1.83;;
13785;SDS011;47474;48.824;9.384;2024-02-16T12:29:18;2.78;;;1.60;;
13785;SDS011;47474;48.824;9.384;2024-02-16T12:31:44;2.35;;;1.77;;
13785;SDS011;47474;48.824;9.384;2024-02-16T12:34:13;2.20;;;2.00;;
13785;SDS011;47474;48.824;9.384;2024-02-16T12:36:39;2.97;;;1.88;;
13785;SDS011;47474;48.824;9.384;2024-02-16T12:39:06;3.78;;;1.77;;
13785;SDS011;47474;48.824;9.384;2024-02-16T12:41:35;2.88;;;1.95;;
13785;SDS011;47474;48.824;9.384;2024-02-16T12:44:03;4.70;;;2.08;;
13785;SDS011;47474;48.824;9.384;2024-02-16T12:46:30;3.33;;;1.88;;
13785;SDS011;47474;48.824;9.384;2024-02-16T12:48:56;2.15;;;1.70;;
13785;SDS011;47474;48.824;9.384;2024-02-16T12:51:23;2.75;;;2.00;;
13785;SDS011;47474;48.824;9.384;2024-02-16T12:53:49;2.00;;;1.80;;
13785;SDS011;47474;48.824;9.384;2024-02-16T12:56:16;3.45;;;2.05;;
13785;SDS011;47474;48.824;9.384;2024-02-16T12:58:44;2.17;;;1.75;;
13785;SDS011;47474;48.824;9.384;2024-02-16T13:01:10;3.03;;;2.13;;
13785;SDS011;47474;48.824;9.384;2024-02-16T13:03:37;5.03;;;2.45;;
13785;SDS011;47474;48.824;9.384;2024-02-16T13:06:05;2.55;;;2.05;;
13785;SDS011;47474;48.824;9.384;2024-02-16T13:08:31;3.72;;;2.20;;
13785;SDS011;47474;48.824;9.384;2024-02-16T13:10:58;4.50;;;2.45;;
13785;SDS011;47474;48.824;9.384;2024-02-16T13:13:25;7.05;;;4.85;;
13785;SDS011;47474;48.824;9.384;2024-02-16T13:15:52;4.88;;;3.88;;
13785;SDS011;47474;48.824;9.384;2024-02-16T13:18:21;5.25;;;4.28;;
13785;SDS011;47474;48.824;9.384;2024-02-16T13:20:47;4.85;;;4.05;;
13785;SDS011;47474;48.824;9.384;2024-02-16T13:23:14;5.85;;;3.58;;
13785;SDS011;47474;48.824;9.384;2024-02-16T13:25:40;3.97;;;2.80;;
13785;SDS011;47474;48.824;9.384;2024-02-16T13:28:07;3.47;;;2.55;;
13785;SDS011;47474;48.824;9.384;2024-02-16T13:30:33;4.93;;;3.42;;
13785;SDS011;47474;48.824;9.384;2024-02-16T13:33:01;5.05;;;3.38;;
13785;SDS011;47474;48.824;9.384;2024-02-16T13:35:28;3.95;;;2.97;;
13785;SDS011;47474;48.824;9.384;2024-02-16T13:37:54;3.38;;;2.58;;
13785;SDS011;47474;48.824;9.384;2024-02-16T13:40:21;4.30;;;2.42;;
13785;SDS011;47474;48.824;9.384;2024-02-16T13:42:48;4.03;;;2.53;;
13785;SDS011;47474;48.824;9.384;2024-02-16T13:45:15;4.38;;;3.05;;
13785;SDS011;47474;48.824;9.384;2024-02-16T13:47:41;3.88;;;2.97;;
13785;SDS011;47474;48.824;9.384;2024-02-16T13:50:10;4.68;;;2.88;;
13785;SDS011;47474;48.824;9.384;2024-02-16T13:52:36;5.03;;;2.65;;
13785;SDS011;47474;48.824;9.384;2024-02-16T13:55:03;4.85;;;2.47;;
13785;SDS011;47474;48.824;9.384;2024-02-16T13:57:31;3.63;;;2.03;;
13785;SDS011;47474;48.824;9.384;2024-02-16T13:59:57;4.40;;;2.70;;
13785;SDS011;47474;48.824;9.384;2024-02-16T14:02:24;2.92;;;2.40;;
13785;SDS011;47474;48.824;9.384;2024-02-16T14:04:50;2.80;;;1.98;;
13785;SDS011;47474;48.824;9.384;2024-02-16T14:07:18;3.50;;;2.50;;
13785;SDS011;47474;48.824;9.384;2024-02-16T14:09:45;3.55;;;2.58;;
13785;SDS011;47474;48.824;9.384;2024-02-16T14:12:11;3.35;;;2.10;;
13785;SDS011;47474;48.824;9.384;2024-02-16T14:14:38;4.43;;;2.45;;
13785;SDS011;47474;48.824;9.384;2024-02-16T14:17:04;2.08;;;1.80;;
13785;SDS011;47474;48.824;9.384;2024-02-16T14:19:31;2.70;;;2.00;;
13785;SDS011;47474;48.824;9.384;2024-02-16T14:21:59;5.63;;;2.40;;
13785;SDS011;47474;48.824;9.384;2024-02-16T14:24:26;4.75;;;2.30;;
13785;SDS011;47474;48.824;9.384;2024-02-16T14:26:53;5.20;;;2.20;;
13785;SDS011;47474;48.824;9.384;2024-02-16T14:29:19;5.35;;;3.20;;
13785;SDS011;47474;48.824;9.384;2024-02-16T14:31:46;3.35;;;1.90;;
13785;SDS011;47474;48.824;9.384;2024-02-16T14:34:14;4.55;;;2.13;;
13785;SDS011;47474;48.824;9.384;2024-02-16T14:36:40;2.78;;;2.00;;
13785;SDS011;47474;48.824;9.384;2024-02-16T14:39:07;5.70;;;2.15;;
13785;SDS011;47474;48.824;9.384;2024-02-16T14:41:35;4.18;;;2.08;;
13785;SDS011;47474;48.824;9.384;2024-02-16T14:44:01;3.35;;;1.85;;
13785;SDS011;47474;48.824;9.384;2024-02-16T14:46:28;4.65;;;1.90;;
13785;SDS011;47474;48.824;9.384;2024-02-16T14:48:54;4.07;;;1.92;;
13785;SDS011;47474;48.824;9.384;2024-02-16T14:51:21;3.40;;;1.90;;